sensor_id;sensor_type;location;lat;lon;timestamp;P1;durP1;ratioP1;P2;durP2;ratioP2
52320;SDS011;38261;54.090;13.382;2022-10-16T00:01:07;2.20;;;2.00;;
52320;SDS011;38261;54.090;13.382;2022-10-16T00:02:32;10.43;;;2.50;;
52320;SDS011;38261;54.090;13.382;2022-10-16T00:03:55;2.80;;;2.50;;
52320;SDS011;38261;54.090;13.382;2022-10-16T00:05:18;2.77;;;2.57;;
52320;SDS011;38261;54.090;13.382;2022-10-16T00:06:40;6.23;;;2.67;;
52320;SDS011;38261;54.090;13.382;2022-10-16T00:08:02;4.23;;;2.83;;
52320;SDS011;38261;54.090;13.382;2022-10-16T00:09:24;3.10;;;2.30;;
52320;SDS011;38261;54.090;13.382;2022-10-16T00:10:46;3.20;;;2.67;;
52320;SDS011;38261;54.090;13.382;2022-10-16T00:12:08;3.83;;;2.80;;
52320;SDS011;38261;54.090;13.382;2022-10-16T00:13:31;2.50;;;2.30;;
52320;SDS011;38261;54.090;13.382;2022-10-16T00:14:54;4.50;;;2.90;;
52320;SDS011;38261;54.090;13.382;2022-10-16T00:16:16;4.63;;;2.23;;
52320;SDS011;38261;54.090;13.382;2022-10-16T00:17:39;3.93;;;2.50;;
52320;SDS011;38261;54.090;13.382;2022-10-16T00:19:01;4.10;;;2.70;;
52320;SDS011;38261;54.090;13.382;2022-10-16T00:20:23;4.70;;;2.80;;
52320;SDS011;38261;54.090;13.382;2022-10-16T00:21:45;2.67;;;2.47;;
52320;SDS011;38261;54.090;13.382;2022-10-16T00:23:07;4.20;;;2.90;;
52320;SDS011;38261;54.090;13.382;2022-10-16T00:24:31;5.20;;;2.80;;
52320;SDS011;38261;54.090;13.382;2022-10-16T00:25:54;5.90;;;2.70;;
52320;SDS011;38261;54.090;13.382;2022-10-16T00:27:17;2.40;;;2.20;;
52320;SDS011;38261;54.090;13.382;2022-10-16T00:28:40;4.53;;;2.43;;
52320;SDS011;38261;54.090;13.382;2022-10-16T00:30:02;2.73;;;2.40;;
52320;SDS011;38261;54.090;13.382;2022-10-16T00:31:25;2.90;;;2.13;;
52320;SDS011;38261;54.090;13.382;2022-10-16T00:32:47;16.53;;;2.90;;
52320;SDS011;38261;54.090;13.382;2022-10-16T00:34:09;3.90;;;2.70;;
52320;SDS011;38261;54.090;13.382;2022-10-16T00:35:31;2.80;;;2.53;;
52320;SDS011;38261;54.090;13.382;2022-10-16T00:36:53;2.87;;;2.60;;
52320;SDS011;38261;54.090;13.382;2022-10-16T00:38:16;3.47;;;2.60;;
52320;SDS011;38261;54.090;13.382;2022-10-16T00:39:38;4.20;;;2.97;;
52320;SDS011;38261;54.090;13.382;2022-10-16T00:41:00;3.03;;;2.40;;
52320;SDS011;38261;54.090;13.382;2022-10-16T00:42:22;4.93;;;2.57;;
52320;SDS011;38261;54.090;13.382;2022-10-16T00:43:52;4.23;;;2.83;;
52320;SDS011;38261;54.090;13.382;2022-10-16T00:45:18;3.00;;;2.53;;
52320;SDS011;38261;54.090;13.382;2022-10-16T00:46:41;4.80;;;2.97;;
52320;SDS011;38261;54.090;13.382;2022-10-16T00:48:04;2.57;;;2.37;;
52320;SDS011;38261;54.090;13.382;2022-10-16T00:49:32;2.73;;;2.50;;
52320;SDS011;38261;54.090;13.382;2022-10-16T00:50:54;3.80;;;2.73;;
52320;SDS011;38261;54.090;13.382;2022-10-16T00:52:17;3.00;;;2.43;;
52320;SDS011;38261;54.090;13.382;2022-10-16T00:53:39;2.73;;;2.53;;
52320;SDS011;38261;54.090;13.382;2022-10-16T00:55:02;2.33;;;2.00;;
52320;SDS011;38261;54.090;13.382;2022-10-16T00:56:26;4.10;;;2.90;;
52320;SDS011;38261;54.090;13.382;2022-10-16T00:57:48;4.40;;;3.00;;
52320;SDS011;38261;54.090;13.382;2022-10-16T00:59:30;6.43;;;3.10;;
52320;SDS011;38261;54.090;13.382;2022-10-16T01:00:56;6.67;;;2.87;;
52320;SDS011;38261;54.090;13.382;2022-10-16T01:02:18;2.97;;;2.63;;
52320;SDS011;38261;54.090;13.382;2022-10-16T01:03:41;3.33;;;3.03;;
52320;SDS011;38261;54.090;13.382;2022-10-16T01:05:03;5.27;;;2.60;;
52320;SDS011;38261;54.090;13.382;2022-10-16T01:08:22;4.50;;;2.67;;
52320;SDS011;38261;54.090;13.382;2022-10-16T01:13:06;3.57;;;3.27;;
52320;SDS011;38261;54.090;13.382;2022-10-16T01:16:47;3.77;;;2.53;;
52320;SDS011;38261;54.090;13.382;2022-10-16T01:18:30;3.23;;;2.90;;
52320;SDS011;38261;54.090;13.382;2022-10-16T01:20:03;3.17;;;2.53;;
52320;SDS011;38261;54.090;13.382;2022-10-16T01:21:45;3.33;;;2.67;;
52320;SDS011;38261;54.090;13.382;2022-10-16T01:24:48;3.40;;;3.00;;
52320;SDS011;38261;54.090;13.382;2022-10-16T01:28:04;3.53;;;3.23;;
52320;SDS011;38261;54.090;13.382;2022-10-16T01:29:32;3.13;;;2.83;;
52320;SDS011;38261;54.090;13.382;2022-10-16T01:30:59;3.47;;;3.17;;
52320;SDS011;38261;54.090;13.382;2022-10-16T01:35:37;5.90;;;2.80;;
52320;SDS011;38261;54.090;13.382;2022-10-16T01:37:12;3.30;;;2.70;;
52320;SDS011;38261;54.090;13.382;2022-10-16T01:38:40;2.77;;;2.50;;
52320;SDS011;38261;54.090;13.382;2022-10-16T01:40:05;3.67;;;2.83;;
52320;SDS011;38261;54.090;13.382;2022-10-16T01:41:34;9.30;;;2.53;;
52320;SDS011;38261;54.090;13.382;2022-10-16T01:43:08;7.53;;;2.97;;
52320;SDS011;38261;54.090;13.382;2022-10-16T01:44:33;2.97;;;2.67;;
52320;SDS011;38261;54.090;13.382;2022-10-16T01:45:57;3.10;;;2.80;;
52320;SDS011;38261;54.090;13.382;2022-10-16T01:47:22;3.83;;;2.90;;
52320;SDS011;38261;54.090;13.382;2022-10-16T01:48:47;2.87;;;2.57;;
52320;SDS011;38261;54.090;13.382;2022-10-16T01:50:10;3.43;;;3.10;;
52320;SDS011;38261;54.090;13.382;2022-10-16T01:51:34;3.77;;;2.60;;
52320;SDS011;38261;54.090;13.382;2022-10-16T01:52:58;3.17;;;2.90;;
52320;SDS011;38261;54.090;13.382;2022-10-16T01:54:22;3.60;;;2.80;;
52320;SDS011;38261;54.090;13.382;2022-10-16T01:55:47;3.10;;;2.80;;
52320;SDS011;38261;54.090;13.382;2022-10-16T01:57:10;2.70;;;2.50;;
52320;SDS011;38261;54.090;13.382;2022-10-16T01:58:35;2.77;;;2.57;;
52320;SDS011;38261;54.090;13.382;2022-10-16T02:00:03;3.27;;;2.97;;
52320;SDS011;38261;54.090;13.382;2022-10-16T02:01:29;7.13;;;2.90;;
52320;SDS011;38261;54.090;13.382;2022-10-16T02:02:54;5.17;;;3.57;;
52320;SDS011;38261;54.090;13.382;2022-10-16T02:04:32;2.60;;;2.40;;
52320;SDS011;38261;54.090;13.382;2022-10-16T02:06:04;11.43;;;3.70;;
52320;SDS011;38261;54.090;13.382;2022-10-16T02:07:26;3.37;;;3.07;;
52320;SDS011;38261;54.090;13.382;2022-10-16T02:08:48;4.20;;;3.37;;
52320;SDS011;38261;54.090;13.382;2022-10-16T02:10:10;3.50;;;3.20;;
52320;SDS011;38261;54.090;13.382;2022-10-16T02:11:33;3.30;;;2.83;;
52320;SDS011;38261;54.090;13.382;2022-10-16T02:13:12;4.63;;;3.93;;
52320;SDS011;38261;54.090;13.382;2022-10-16T02:14:40;4.40;;;3.43;;
52320;SDS011;38261;54.090;13.382;2022-10-16T02:16:02;4.60;;;3.20;;
52320;SDS011;38261;54.090;13.382;2022-10-16T02:17:25;6.80;;;3.67;;
52320;SDS011;38261;54.090;13.382;2022-10-16T02:18:47;4.13;;;3.13;;
52320;SDS011;38261;54.090;13.382;2022-10-16T02:20:09;5.10;;;3.40;;
52320;SDS011;38261;54.090;13.382;2022-10-16T02:21:42;5.03;;;3.17;;
52320;SDS011;38261;54.090;13.382;2022-10-16T02:23:08;4.70;;;3.73;;
52320;SDS011;38261;54.090;13.382;2022-10-16T02:24:40;3.90;;;3.47;;
52320;SDS011;38261;54.090;13.382;2022-10-16T02:26:23;8.63;;;3.43;;
52320;SDS011;38261;54.090;13.382;2022-10-16T02:27:56;3.63;;;3.33;;
52320;SDS011;38261;54.090;13.382;2022-10-16T02:29:28;3.60;;;3.23;;
52320;SDS011;38261;54.090;13.382;2022-10-16T02:30:59;3.70;;;3.40;;
52320;SDS011;38261;54.090;13.382;2022-10-16T02:32:27;3.50;;;3.13;;
52320;SDS011;38261;54.090;13.382;2022-10-16T02:33:52;4.07;;;3.67;;
52320;SDS011;38261;54.090;13.382;2022-10-16T02:35:20;5.23;;;3.50;;
52320;SDS011;38261;54.090;13.382;2022-10-16T02:36:43;5.50;;;3.60;;
52320;SDS011;38261;54.090;13.382;2022-10-16T02:38:07;6.07;;;3.60;;
52320;SDS011;38261;54.090;13.382;2022-10-16T02:39:35;3.70;;;3.40;;
52320;SDS011;38261;54.090;13.382;2022-10-16T02:40:58;6.47;;;3.40;;
52320;SDS011;38261;54.090;13.382;2022-10-16T02:42:20;4.43;;;3.73;;
52320;SDS011;38261;54.090;13.382;2022-10-16T02:43:49;4.07;;;3.60;;
52320;SDS011;38261;54.090;13.382;2022-10-16T02:45:11;7.20;;;3.70;;
52320;SDS011;38261;54.090;13.382;2022-10-16T02:46:33;9.73;;;4.03;;
52320;SDS011;38261;54.090;13.382;2022-10-16T02:47:55;5.10;;;3.87;;
52320;SDS011;38261;54.090;13.382;2022-10-16T02:49:17;4.43;;;3.80;;
52320;SDS011;38261;54.090;13.382;2022-10-16T02:50:40;4.00;;;3.53;;
52320;SDS011;38261;54.090;13.382;2022-10-16T02:52:02;4.20;;;3.80;;
52320;SDS011;38261;54.090;13.382;2022-10-16T02:53:24;6.30;;;4.60;;
52320;SDS011;38261;54.090;13.382;2022-10-16T02:54:46;4.87;;;4.27;;
52320;SDS011;38261;54.090;13.382;2022-10-16T02:56:08;4.60;;;4.10;;
52320;SDS011;38261;54.090;13.382;2022-10-16T02:57:30;7.63;;;4.60;;
52320;SDS011;38261;54.090;13.382;2022-10-16T02:58:53;5.77;;;3.97;;
52320;SDS011;38261;54.090;13.382;2022-10-16T03:00:15;6.37;;;4.80;;
52320;SDS011;38261;54.090;13.382;2022-10-16T03:01:38;4.90;;;4.20;;
52320;SDS011;38261;54.090;13.382;2022-10-16T03:03:00;4.67;;;4.27;;
52320;SDS011;38261;54.090;13.382;2022-10-16T03:04:22;5.03;;;4.53;;
52320;SDS011;38261;54.090;13.382;2022-10-16T03:05:44;6.27;;;5.03;;
52320;SDS011;38261;54.090;13.382;2022-10-16T03:07:09;5.20;;;4.70;;
52320;SDS011;38261;54.090;13.382;2022-10-16T03:08:31;5.20;;;4.70;;
52320;SDS011;38261;54.090;13.382;2022-10-16T03:09:53;7.00;;;4.97;;
52320;SDS011;38261;54.090;13.382;2022-10-16T03:11:16;4.97;;;4.47;;
52320;SDS011;38261;54.090;13.382;2022-10-16T03:12:38;6.80;;;4.67;;
52320;SDS011;38261;54.090;13.382;2022-10-16T03:14:00;4.90;;;4.27;;
52320;SDS011;38261;54.090;13.382;2022-10-16T03:15:22;6.53;;;5.03;;
52320;SDS011;38261;54.090;13.382;2022-10-16T03:16:45;4.87;;;4.07;;
52320;SDS011;38261;54.090;13.382;2022-10-16T03:18:07;4.37;;;3.97;;
52320;SDS011;38261;54.090;13.382;2022-10-16T03:19:29;5.60;;;4.00;;
52320;SDS011;38261;54.090;13.382;2022-10-16T03:20:51;5.07;;;4.57;;
52320;SDS011;38261;54.090;13.382;2022-10-16T03:22:13;5.17;;;3.40;;
52320;SDS011;38261;54.090;13.382;2022-10-16T03:23:35;4.37;;;3.97;;
52320;SDS011;38261;54.090;13.382;2022-10-16T03:24:57;5.40;;;4.90;;
52320;SDS011;38261;54.090;13.382;2022-10-16T03:26:19;4.80;;;3.70;;
52320;SDS011;38261;54.090;13.382;2022-10-16T03:27:41;5.50;;;4.30;;
52320;SDS011;38261;54.090;13.382;2022-10-16T03:29:03;3.93;;;3.53;;
52320;SDS011;38261;54.090;13.382;2022-10-16T03:30:25;5.30;;;4.50;;
52320;SDS011;38261;54.090;13.382;2022-10-16T03:31:47;4.53;;;4.00;;
52320;SDS011;38261;54.090;13.382;2022-10-16T03:33:11;5.30;;;4.50;;
52320;SDS011;38261;54.090;13.382;2022-10-16T03:34:33;4.43;;;4.03;;
52320;SDS011;38261;54.090;13.382;2022-10-16T03:35:55;4.70;;;4.20;;
52320;SDS011;38261;54.090;13.382;2022-10-16T03:37:17;5.33;;;4.50;;
52320;SDS011;38261;54.090;13.382;2022-10-16T03:38:39;7.27;;;4.93;;
52320;SDS011;38261;54.090;13.382;2022-10-16T03:40:01;6.57;;;4.63;;
52320;SDS011;38261;54.090;13.382;2022-10-16T03:41:25;4.50;;;3.77;;
52320;SDS011;38261;54.090;13.382;2022-10-16T03:42:47;4.73;;;4.17;;
52320;SDS011;38261;54.090;13.382;2022-10-16T03:44:09;5.17;;;4.67;;
52320;SDS011;38261;54.090;13.382;2022-10-16T03:45:31;5.50;;;4.67;;
52320;SDS011;38261;54.090;13.382;2022-10-16T03:46:53;6.60;;;4.80;;
52320;SDS011;38261;54.090;13.382;2022-10-16T03:48:15;5.70;;;4.47;;
52320;SDS011;38261;54.090;13.382;2022-10-16T03:49:37;5.10;;;4.60;;
52320;SDS011;38261;54.090;13.382;2022-10-16T03:50:59;5.93;;;4.93;;
52320;SDS011;38261;54.090;13.382;2022-10-16T03:52:21;6.67;;;5.03;;
52320;SDS011;38261;54.090;13.382;2022-10-16T03:53:43;10.43;;;5.80;;
52320;SDS011;38261;54.090;13.382;2022-10-16T03:55:05;9.53;;;5.20;;
52320;SDS011;38261;54.090;13.382;2022-10-16T03:56:27;6.07;;;5.20;;
52320;SDS011;38261;54.090;13.382;2022-10-16T03:57:50;6.53;;;5.17;;
52320;SDS011;38261;54.090;13.382;2022-10-16T03:59:12;5.40;;;4.80;;
52320;SDS011;38261;54.090;13.382;2022-10-16T04:00:34;5.70;;;4.80;;
52320;SDS011;38261;54.090;13.382;2022-10-16T04:01:56;5.07;;;4.53;;
52320;SDS011;38261;54.090;13.382;2022-10-16T04:03:18;5.90;;;4.77;;
52320;SDS011;38261;54.090;13.382;2022-10-16T04:04:40;6.10;;;5.20;;
52320;SDS011;38261;54.090;13.382;2022-10-16T04:06:02;5.87;;;4.60;;
52320;SDS011;38261;54.090;13.382;2022-10-16T04:07:24;6.13;;;4.83;;
52320;SDS011;38261;54.090;13.382;2022-10-16T04:08:47;5.87;;;4.80;;
52320;SDS011;38261;54.090;13.382;2022-10-16T04:10:10;6.33;;;5.27;;
52320;SDS011;38261;54.090;13.382;2022-10-16T04:11:32;6.67;;;4.97;;
52320;SDS011;38261;54.090;13.382;2022-10-16T04:12:54;9.47;;;5.07;;
52320;SDS011;38261;54.090;13.382;2022-10-16T04:14:17;7.90;;;5.47;;
52320;SDS011;38261;54.090;13.382;2022-10-16T04:15:39;6.27;;;5.13;;
52320;SDS011;38261;54.090;13.382;2022-10-16T04:17:01;7.27;;;5.97;;
52320;SDS011;38261;54.090;13.382;2022-10-16T04:18:23;8.13;;;6.30;;
52320;SDS011;38261;54.090;13.382;2022-10-16T04:19:48;8.80;;;5.50;;
52320;SDS011;38261;54.090;13.382;2022-10-16T04:21:10;8.27;;;5.50;;
52320;SDS011;38261;54.090;13.382;2022-10-16T04:22:32;7.40;;;5.67;;
52320;SDS011;38261;54.090;13.382;2022-10-16T04:23:54;9.73;;;4.67;;
52320;SDS011;38261;54.090;13.382;2022-10-16T04:25:16;8.47;;;5.33;;
52320;SDS011;38261;54.090;13.382;2022-10-16T04:26:38;6.00;;;5.03;;
52320;SDS011;38261;54.090;13.382;2022-10-16T04:28:00;7.20;;;5.10;;
52320;SDS011;38261;54.090;13.382;2022-10-16T04:29:22;6.70;;;4.97;;
52320;SDS011;38261;54.090;13.382;2022-10-16T04:30:44;5.73;;;5.13;;
52320;SDS011;38261;54.090;13.382;2022-10-16T04:32:07;5.43;;;4.57;;
52320;SDS011;38261;54.090;13.382;2022-10-16T04:33:30;5.37;;;4.87;;
52320;SDS011;38261;54.090;13.382;2022-10-16T04:34:53;5.43;;;3.97;;
52320;SDS011;38261;54.090;13.382;2022-10-16T04:36:15;8.00;;;4.33;;
52320;SDS011;38261;54.090;13.382;2022-10-16T04:37:37;4.90;;;4.40;;
52320;SDS011;38261;54.090;13.382;2022-10-16T04:38:59;6.17;;;4.23;;
52320;SDS011;38261;54.090;13.382;2022-10-16T04:40:21;5.03;;;4.53;;
52320;SDS011;38261;54.090;13.382;2022-10-16T04:41:43;7.30;;;4.77;;
52320;SDS011;38261;54.090;13.382;2022-10-16T04:43:05;5.97;;;4.40;;
52320;SDS011;38261;54.090;13.382;2022-10-16T04:44:27;4.17;;;3.73;;
52320;SDS011;38261;54.090;13.382;2022-10-16T04:45:49;6.70;;;4.20;;
52320;SDS011;38261;54.090;13.382;2022-10-16T04:47:12;4.30;;;3.60;;
52320;SDS011;38261;54.090;13.382;2022-10-16T04:48:35;5.33;;;3.63;;
52320;SDS011;38261;54.090;13.382;2022-10-16T04:49:57;5.70;;;4.27;;
52320;SDS011;38261;54.090;13.382;2022-10-16T04:51:20;6.27;;;4.33;;
52320;SDS011;38261;54.090;13.382;2022-10-16T04:52:42;4.03;;;3.50;;
52320;SDS011;38261;54.090;13.382;2022-10-16T04:54:04;5.07;;;3.87;;
52320;SDS011;38261;54.090;13.382;2022-10-16T04:55:26;5.43;;;3.70;;
52320;SDS011;38261;54.090;13.382;2022-10-16T04:56:48;6.43;;;3.90;;
52320;SDS011;38261;54.090;13.382;2022-10-16T04:58:12;4.17;;;3.77;;
52320;SDS011;38261;54.090;13.382;2022-10-16T04:59:34;6.50;;;3.50;;
52320;SDS011;38261;54.090;13.382;2022-10-16T05:00:56;7.83;;;3.70;;
52320;SDS011;38261;54.090;13.382;2022-10-16T05:02:18;4.77;;;3.80;;
52320;SDS011;38261;54.090;13.382;2022-10-16T05:03:40;4.40;;;3.50;;
52320;SDS011;38261;54.090;13.382;2022-10-16T05:05:02;7.23;;;3.83;;
52320;SDS011;38261;54.090;13.382;2022-10-16T05:06:25;4.30;;;3.40;;
52320;SDS011;38261;54.090;13.382;2022-10-16T05:07:47;4.23;;;3.73;;
52320;SDS011;38261;54.090;13.382;2022-10-16T05:09:09;7.27;;;3.40;;
52320;SDS011;38261;54.090;13.382;2022-10-16T05:10:31;5.83;;;3.60;;
52320;SDS011;38261;54.090;13.382;2022-10-16T05:11:53;4.57;;;3.40;;
52320;SDS011;38261;54.090;13.382;2022-10-16T05:13:15;3.47;;;3.17;;
52320;SDS011;38261;54.090;13.382;2022-10-16T05:14:37;7.10;;;3.57;;
52320;SDS011;38261;54.090;13.382;2022-10-16T05:15:59;4.13;;;3.70;;
52320;SDS011;38261;54.090;13.382;2022-10-16T05:17:21;4.83;;;3.70;;
52320;SDS011;38261;54.090;13.382;2022-10-16T05:18:44;6.00;;;3.90;;
52320;SDS011;38261;54.090;13.382;2022-10-16T05:20:06;4.20;;;3.37;;
52320;SDS011;38261;54.090;13.382;2022-10-16T05:21:28;4.30;;;3.30;;
52320;SDS011;38261;54.090;13.382;2022-10-16T05:22:51;5.53;;;3.70;;
52320;SDS011;38261;54.090;13.382;2022-10-16T05:24:13;3.73;;;3.40;;
52320;SDS011;38261;54.090;13.382;2022-10-16T05:25:36;5.13;;;3.57;;
52320;SDS011;38261;54.090;13.382;2022-10-16T05:26:58;5.87;;;3.40;;
52320;SDS011;38261;54.090;13.382;2022-10-16T05:28:20;8.40;;;3.47;;
52320;SDS011;38261;54.090;13.382;2022-10-16T05:29:42;5.53;;;3.30;;
52320;SDS011;38261;54.090;13.382;2022-10-16T05:31:08;5.07;;;3.90;;
52320;SDS011;38261;54.090;13.382;2022-10-16T05:32:31;3.50;;;3.20;;
52320;SDS011;38261;54.090;13.382;2022-10-16T05:33:57;8.47;;;3.30;;
52320;SDS011;38261;54.090;13.382;2022-10-16T05:35:20;4.57;;;3.80;;
52320;SDS011;38261;54.090;13.382;2022-10-16T05:36:42;4.10;;;3.17;;
52320;SDS011;38261;54.090;13.382;2022-10-16T05:38:06;3.90;;;3.50;;
52320;SDS011;38261;54.090;13.382;2022-10-16T05:39:28;5.53;;;3.27;;
52320;SDS011;38261;54.090;13.382;2022-10-16T05:40:50;9.07;;;3.83;;
52320;SDS011;38261;54.090;13.382;2022-10-16T05:42:14;4.27;;;3.40;;
52320;SDS011;38261;54.090;13.382;2022-10-16T05:43:36;7.20;;;3.77;;
52320;SDS011;38261;54.090;13.382;2022-10-16T05:44:58;4.87;;;4.00;;
52320;SDS011;38261;54.090;13.382;2022-10-16T05:46:20;4.60;;;3.70;;
52320;SDS011;38261;54.090;13.382;2022-10-16T05:47:42;6.43;;;3.80;;
52320;SDS011;38261;54.090;13.382;2022-10-16T05:49:04;5.23;;;3.87;;
52320;SDS011;38261;54.090;13.382;2022-10-16T05:50:26;12.00;;;3.13;;
52320;SDS011;38261;54.090;13.382;2022-10-16T05:51:48;5.40;;;4.10;;
52320;SDS011;38261;54.090;13.382;2022-10-16T05:53:10;5.87;;;4.00;;
52320;SDS011;38261;54.090;13.382;2022-10-16T05:54:33;4.30;;;3.80;;
52320;SDS011;38261;54.090;13.382;2022-10-16T05:55:55;6.70;;;4.77;;
52320;SDS011;38261;54.090;13.382;2022-10-16T05:57:17;5.67;;;3.60;;
52320;SDS011;38261;54.090;13.382;2022-10-16T05:58:39;6.80;;;4.17;;
52320;SDS011;38261;54.090;13.382;2022-10-16T06:00:02;11.40;;;4.77;;
52320;SDS011;38261;54.090;13.382;2022-10-16T06:01:25;6.03;;;4.17;;
52320;SDS011;38261;54.090;13.382;2022-10-16T06:02:47;6.70;;;4.53;;
52320;SDS011;38261;54.090;13.382;2022-10-16T06:04:09;6.63;;;3.70;;
52320;SDS011;38261;54.090;13.382;2022-10-16T06:05:36;3.93;;;3.53;;
52320;SDS011;38261;54.090;13.382;2022-10-16T06:06:59;4.63;;;3.80;;
52320;SDS011;38261;54.090;13.382;2022-10-16T06:08:22;8.73;;;3.97;;
52320;SDS011;38261;54.090;13.382;2022-10-16T06:09:47;4.80;;;3.73;;
52320;SDS011;38261;54.090;13.382;2022-10-16T06:11:14;5.93;;;3.30;;
52320;SDS011;38261;54.090;13.382;2022-10-16T06:12:38;4.07;;;3.67;;
52320;SDS011;38261;54.090;13.382;2022-10-16T06:14:00;5.07;;;3.30;;
52320;SDS011;38261;54.090;13.382;2022-10-16T06:15:27;5.60;;;3.10;;
52320;SDS011;38261;54.090;13.382;2022-10-16T06:16:49;4.60;;;3.53;;
52320;SDS011;38261;54.090;13.382;2022-10-16T06:18:11;3.80;;;2.90;;
52320;SDS011;38261;54.090;13.382;2022-10-16T06:19:33;4.40;;;3.80;;
52320;SDS011;38261;54.090;13.382;2022-10-16T06:20:56;7.33;;;3.10;;
52320;SDS011;38261;54.090;13.382;2022-10-16T06:22:18;5.33;;;3.40;;
52320;SDS011;38261;54.090;13.382;2022-10-16T06:23:40;4.03;;;3.63;;
52320;SDS011;38261;54.090;13.382;2022-10-16T06:25:02;10.30;;;3.33;;
52320;SDS011;38261;54.090;13.382;2022-10-16T06:26:26;6.20;;;3.30;;
52320;SDS011;38261;54.090;13.382;2022-10-16T06:27:49;7.23;;;3.43;;
52320;SDS011;38261;54.090;13.382;2022-10-16T06:29:11;3.83;;;2.83;;
52320;SDS011;38261;54.090;13.382;2022-10-16T06:30:33;4.00;;;2.90;;
52320;SDS011;38261;54.090;13.382;2022-10-16T06:31:55;8.10;;;3.20;;
52320;SDS011;38261;54.090;13.382;2022-10-16T06:33:17;5.53;;;3.13;;
52320;SDS011;38261;54.090;13.382;2022-10-16T06:34:39;4.90;;;2.80;;
52320;SDS011;38261;54.090;13.382;2022-10-16T06:36:05;4.73;;;2.40;;
52320;SDS011;38261;54.090;13.382;2022-10-16T06:37:32;4.03;;;2.13;;
52320;SDS011;38261;54.090;13.382;2022-10-16T06:38:54;3.70;;;3.30;;
52320;SDS011;38261;54.090;13.382;2022-10-16T06:40:16;4.50;;;2.30;;
52320;SDS011;38261;54.090;13.382;2022-10-16T06:41:38;6.03;;;3.33;;
52320;SDS011;38261;54.090;13.382;2022-10-16T06:43:01;3.63;;;2.90;;
52320;SDS011;38261;54.090;13.382;2022-10-16T06:44:23;2.53;;;1.70;;
52320;SDS011;38261;54.090;13.382;2022-10-16T06:45:54;5.57;;;2.23;;
52320;SDS011;38261;54.090;13.382;2022-10-16T06:47:17;3.70;;;2.60;;
52320;SDS011;38261;54.090;13.382;2022-10-16T06:48:40;3.53;;;2.20;;
52320;SDS011;38261;54.090;13.382;2022-10-16T06:50:02;3.53;;;2.17;;
52320;SDS011;38261;54.090;13.382;2022-10-16T06:51:25;3.20;;;2.00;;
52320;SDS011;38261;54.090;13.382;2022-10-16T06:52:47;6.43;;;3.20;;
52320;SDS011;38261;54.090;13.382;2022-10-16T06:54:09;5.63;;;2.53;;
52320;SDS011;38261;54.090;13.382;2022-10-16T06:55:31;4.50;;;2.10;;
52320;SDS011;38261;54.090;13.382;2022-10-16T06:56:54;7.17;;;2.50;;
52320;SDS011;38261;54.090;13.382;2022-10-16T06:58:16;5.70;;;2.50;;
52320;SDS011;38261;54.090;13.382;2022-10-16T06:59:38;10.63;;;2.40;;
52320;SDS011;38261;54.090;13.382;2022-10-16T07:01:00;5.73;;;2.77;;
52320;SDS011;38261;54.090;13.382;2022-10-16T07:02:22;9.93;;;3.97;;
52320;SDS011;38261;54.090;13.382;2022-10-16T07:03:45;5.23;;;2.77;;
52320;SDS011;38261;54.090;13.382;2022-10-16T07:05:08;5.70;;;2.23;;
52320;SDS011;38261;54.090;13.382;2022-10-16T07:06:31;3.63;;;2.10;;
52320;SDS011;38261;54.090;13.382;2022-10-16T07:07:54;7.10;;;1.67;;
52320;SDS011;38261;54.090;13.382;2022-10-16T07:09:17;2.57;;;2.10;;
52320;SDS011;38261;54.090;13.382;2022-10-16T07:10:39;5.23;;;2.33;;
52320;SDS011;38261;54.090;13.382;2022-10-16T07:12:01;6.50;;;2.80;;
52320;SDS011;38261;54.090;13.382;2022-10-16T07:13:23;7.43;;;3.37;;
52320;SDS011;38261;54.090;13.382;2022-10-16T07:14:45;6.63;;;3.10;;
52320;SDS011;38261;54.090;13.382;2022-10-16T07:16:08;5.83;;;2.20;;
52320;SDS011;38261;54.090;13.382;2022-10-16T07:17:38;3.40;;;2.27;;
52320;SDS011;38261;54.090;13.382;2022-10-16T07:19:00;3.73;;;2.10;;
52320;SDS011;38261;54.090;13.382;2022-10-16T07:20:23;6.00;;;1.90;;
52320;SDS011;38261;54.090;13.382;2022-10-16T07:21:45;3.73;;;2.00;;
52320;SDS011;38261;54.090;13.382;2022-10-16T07:23:07;5.03;;;2.53;;
52320;SDS011;38261;54.090;13.382;2022-10-16T07:24:29;4.30;;;2.50;;
52320;SDS011;38261;54.090;13.382;2022-10-16T07:25:54;5.53;;;3.37;;
52320;SDS011;38261;54.090;13.382;2022-10-16T07:27:16;7.53;;;2.60;;
52320;SDS011;38261;54.090;13.382;2022-10-16T07:28:39;7.80;;;2.50;;
52320;SDS011;38261;54.090;13.382;2022-10-16T07:30:01;3.50;;;2.33;;
52320;SDS011;38261;54.090;13.382;2022-10-16T07:31:28;6.80;;;2.80;;
52320;SDS011;38261;54.090;13.382;2022-10-16T07:32:50;4.37;;;2.30;;
52320;SDS011;38261;54.090;13.382;2022-10-16T07:34:13;3.43;;;1.80;;
52320;SDS011;38261;54.090;13.382;2022-10-16T07:35:36;2.83;;;1.90;;
52320;SDS011;38261;54.090;13.382;2022-10-16T07:36:58;3.40;;;2.30;;
52320;SDS011;38261;54.090;13.382;2022-10-16T07:38:20;6.07;;;2.30;;
52320;SDS011;38261;54.090;13.382;2022-10-16T07:39:43;6.00;;;1.50;;
52320;SDS011;38261;54.090;13.382;2022-10-16T07:41:06;4.83;;;2.20;;
52320;SDS011;38261;54.090;13.382;2022-10-16T07:42:30;2.30;;;2.10;;
52320;SDS011;38261;54.090;13.382;2022-10-16T07:43:52;4.37;;;2.40;;
52320;SDS011;38261;54.090;13.382;2022-10-16T07:45:16;3.23;;;1.93;;
52320;SDS011;38261;54.090;13.382;2022-10-16T07:46:38;4.30;;;2.80;;
52320;SDS011;38261;54.090;13.382;2022-10-16T07:48:00;5.50;;;2.77;;
52320;SDS011;38261;54.090;13.382;2022-10-16T07:49:22;3.23;;;2.30;;
52320;SDS011;38261;54.090;13.382;2022-10-16T07:50:44;7.60;;;2.23;;
52320;SDS011;38261;54.090;13.382;2022-10-16T07:52:07;3.63;;;2.73;;
52320;SDS011;38261;54.090;13.382;2022-10-16T07:53:29;3.40;;;1.80;;
52320;SDS011;38261;54.090;13.382;2022-10-16T07:54:51;2.40;;;1.80;;
52320;SDS011;38261;54.090;13.382;2022-10-16T07:56:14;3.17;;;1.50;;
52320;SDS011;38261;54.090;13.382;2022-10-16T07:57:36;3.50;;;1.73;;
52320;SDS011;38261;54.090;13.382;2022-10-16T07:58:59;4.80;;;1.87;;
52320;SDS011;38261;54.090;13.382;2022-10-16T08:00:21;4.93;;;2.10;;
52320;SDS011;38261;54.090;13.382;2022-10-16T08:01:43;5.43;;;1.90;;
52320;SDS011;38261;54.090;13.382;2022-10-16T08:03:05;2.53;;;1.90;;
52320;SDS011;38261;54.090;13.382;2022-10-16T08:04:27;4.87;;;2.20;;
52320;SDS011;38261;54.090;13.382;2022-10-16T08:05:49;6.27;;;2.30;;
52320;SDS011;38261;54.090;13.382;2022-10-16T08:07:12;4.23;;;2.20;;
52320;SDS011;38261;54.090;13.382;2022-10-16T08:08:34;7.70;;;2.60;;
52320;SDS011;38261;54.090;13.382;2022-10-16T08:09:57;4.40;;;1.87;;
52320;SDS011;38261;54.090;13.382;2022-10-16T08:11:20;5.07;;;2.20;;
52320;SDS011;38261;54.090;13.382;2022-10-16T08:12:42;3.07;;;1.80;;
52320;SDS011;38261;54.090;13.382;2022-10-16T08:14:04;2.33;;;1.70;;
52320;SDS011;38261;54.090;13.382;2022-10-16T08:15:26;4.40;;;1.67;;
52320;SDS011;38261;54.090;13.382;2022-10-16T08:16:48;3.90;;;2.10;;
52320;SDS011;38261;54.090;13.382;2022-10-16T08:18:11;2.57;;;2.10;;
52320;SDS011;38261;54.090;13.382;2022-10-16T08:19:34;2.00;;;1.80;;
52320;SDS011;38261;54.090;13.382;2022-10-16T08:20:58;3.80;;;2.10;;
52320;SDS011;38261;54.090;13.382;2022-10-16T08:22:21;6.93;;;2.20;;
52320;SDS011;38261;54.090;13.382;2022-10-16T08:23:43;2.23;;;1.63;;
52320;SDS011;38261;54.090;13.382;2022-10-16T08:25:06;12.60;;;1.60;;
52320;SDS011;38261;54.090;13.382;2022-10-16T08:26:29;5.07;;;1.97;;
52320;SDS011;38261;54.090;13.382;2022-10-16T08:27:51;3.97;;;1.90;;
52320;SDS011;38261;54.090;13.382;2022-10-16T08:29:13;3.20;;;1.60;;